EGEOEICK

Guest
Details From EGEO - Oban
To EICK - Cork
Flight Number -
Tags Generated
Created
Modified
Stats Distance 298 nm / 552 km
Max Altitude 0 ft / 0 m
Waypoints 3
Social Downloads 1
Likes 0
Share VATSIM

Download

Looking for another format? Having issues loading an existing format? Contact us
Advertisement - Login to hide

Notes

Generated

Route

EGEO R1300 EICK

ID Type Via Altitude Latitude Longitude Leg Dist Tot Dist Heading (true) Name
O EGEO APT - 0 ft / 0 m 56.46016˚ -5.40382˚ - 0 nm - Oban
R1300 FIX - 0 ft / 0 m 51.85027˚ -8.49644˚ 297 nm 297 nm 203° / 200° -
O EICK APT - 0 ft / 0 m 51.84143˚ -8.49570˚ 0 nm 297 nm 177° / 177° -

Altitude Profile

Advertisement - Login to hide

Weather


0- 5 10 15 20 25 30 35+ Temperature / ° C

Clouds and Precipitation
Forecast for 2017-12-14 18:00 UTC. Updated 20 minutes ago

Ground ~20,000 ft ~40,000 ft Winds

EGEO

Details ICAO EGEO (OBN)
Name Oban
Region United Kingdom
Timezone Europe/London (UTC+0.0)
Stats Elevation 20 ft / 6 m (AMSL)
Location 56.463716° -5.399864°
Runways 1
Magnetic Variation 3.254° W

METAR

EGEO 141320Z 32003KT 250V360 9999 FEW024 SCT016 04/01 Q0981

Decode

TAF

Not found

Departure Runways

ID Width Length Bearing (true) Bearing (mag) Surface Threshold Offset Overrun Length
01 98 ft / 30 m 4,165 ft / 1,270 m 5.58° 8.83° Asphalt 413 ft / 126 m 0 ft / 0 m
19 98 ft / 30 m 4,165 ft / 1,270 m 185.58° 188.83° Asphalt 0 ft / 0 m 0 ft / 0 m

EICK

Details ICAO EICK (ORK)
Name Cork
Region Ireland
Timezone Europe/Dublin (UTC+0.0)
Stats Elevation 502 ft / 153 m (AMSL)
Location 51.842605° -8.489056°
Runways 2
Magnetic Variation 3.612° W

METAR

EICK 141330Z 28018G32KT 9999 -SHRA SCT010 BKN016CB 04/03 Q0990 NOSIG

Decode

TAF

Not found

Destination Runways

ID Width Length Bearing (true) Bearing (mag) Surface Threshold Offset Overrun Length
07 148 ft / 45 m 4,281 ft / 1,305 m 62.55° 66.16° Concrete 0 ft / 0 m 0 ft / 0 m
17 148 ft / 45 m 6,992 ft / 2,131 m 159.93° 163.54° Asphalt 0 ft / 0 m 115 ft / 35 m
25 148 ft / 45 m 4,281 ft / 1,305 m 242.57° 246.18° Concrete 0 ft / 0 m 39 ft / 12 m
35 148 ft / 45 m 6,992 ft / 2,131 m 339.94° 343.55° Asphalt 0 ft / 0 m 0 ft / 0 m

Approach Navaids

Runway Type Ident Frequency Range Bearing (true) Bearing (mag) Slope Elevation
17 Localiser ICS 109.90 MHz 18 nm / 33 km 160.21° 163.82° - 502 ft / 153 m (AMSL)
17 Glidescope ICS 109.90 MHz 10 nm / 19 km 159.93° 163.54° 3.00° 502 ft / 153 m (AMSL)
17 DME ICS 109.90 MHz 18 nm / 33 km - - - 490 ft / 149 m (AMSL)
35 Localiser ICN 109.15 MHz 18 nm / 33 km 339.65° 343.26° - 490 ft / 149 m (AMSL)
35 Glidescope ICN 109.15 MHz 10 nm / 19 km 339.93° 343.54° 3.00° 502 ft / 153 m (AMSL)
35 DME ICN 109.15 MHz 18 nm / 33 km - - - 490 ft / 149 m (AMSL)